Time;durP1;ratioP1;P1;durP2;ratioP2;P2;SDS_P1;SDS_P2;PMS_P1;PMS_P2;Temp;Humidity;BMP_temperature;BMP_pressure;BME280_temperature;BME280_humidity;BME280_pressure;Samples;Min_cycle;Max_cycle;Signal;HPM_P1;HPM_P2
2022/12/15 00:41:00;;;;;;;0.40;0.40;;;;;;;-6.28;100.00;100614.63;4932383;28;20068;-75
2022/12/15 00:43:27;;;;;;;0.20;0.20;;;;;;;-6.51;100.00;100582.66;4931334;28;20043;-75
2022/12/15 00:48:37;;;;;;;0.40;0.40;;;;;;;-6.49;100.00;100593.94;4931049;28;20037;-75
2022/12/15 00:51:03;;;;;;;0.30;0.30;;;;;;;-6.39;100.00;100614.75;4931568;29;20043;-75
2022/12/15 01:21:00;;;;;;;0.40;0.40;;;;;;;-6.21;100.00;100658.09;5007133;28;20099;-75
2022/12/15 01:23:26;;;;;;;0.30;0.30;;;;;;;-6.18;100.00;100645.88;5007418;28;20038;-75
2022/12/15 01:25:52;;;;;;;0.30;0.30;;;;;;;-6.22;100.00;100646.78;4979392;28;20048;-75
2022/12/15 01:28:18;;;;;;;0.30;0.30;;;;;;;-6.22;100.00;100659.84;4996847;28;20437;-75
2022/12/15 01:30:44;;;;;;;0.35;0.35;;;;;;;-6.36;100.00;100625.19;4995601;28;20491;-75
2022/12/15 01:33:09;;;;;;;0.35;0.35;;;;;;;-6.23;100.00;100655.50;4981624;28;20066;-75
2022/12/15 01:35:34;;;;;;;0.30;0.30;;;;;;;-6.27;100.00;100651.19;4997673;28;20676;-74
2022/12/15 01:38:00;;;;;;;0.30;0.30;;;;;;;-6.56;100.00;100628.84;4995343;28;20083;-75
2022/12/15 01:43:17;;;;;;;0.30;0.30;;;;;;;-6.87;100.00;100655.25;4998475;28;20045;-74
2022/12/15 01:46:00;;;;;;;0.40;0.40;;;;;;;-7.16;100.00;100663.34;4979695;28;20039;-74
2022/12/15 01:48:41;;;;;;;0.40;0.40;;;;;;;-7.18;100.00;100660.75;4992030;28;20638;-75
2022/12/15 01:51:16;;;;;;;0.40;0.40;;;;;;;-7.13;100.00;100655.50;4974842;28;20075;-75
2022/12/15 01:53:46;;;;;;;0.30;0.30;;;;;;;-6.97;100.00;100667.53;4990187;28;20057;-75
2022/12/15 01:56:12;;;;;;;0.40;0.40;;;;;;;-6.86;100.00;100666.59;5004512;28;20044;-74
2022/12/15 01:58:41;;;;;;;0.30;0.30;;;;;;;-6.82;100.00;100663.06;4982957;28;20030;-74
2022/12/15 02:01:07;;;;;;;0.40;0.40;;;;;;;-6.80;100.00;100656.94;4966363;28;20034;-75
2022/12/15 02:03:32;;;;;;;0.40;0.40;;;;;;;-6.84;100.00;100657.84;4981515;28;20030;-75
2022/12/15 02:05:59;;;;;;;0.32;0.32;;;;;;;-7.06;100.00;100638.91;4980919;28;20037;-75
2022/12/15 02:08:24;;;;;;;0.32;0.32;;;;;;;-7.07;100.00;100671.09;4966768;28;20042;-74
2022/12/15 02:11:09;;;;;;;0.40;0.40;;;;;;;-7.21;100.00;100678.16;4981257;28;20044;-75
2022/12/15 02:13:45;;;;;;;0.40;0.40;;;;;;;-7.33;100.00;100666.06;4989044;28;20120;-74
2022/12/15 02:16:13;;;;;;;0.40;0.40;;;;;;;-7.36;100.00;100690.44;4966836;28;20037;-75
2022/12/15 02:18:53;;;;;;;0.40;0.40;;;;;;;-7.48;100.00;100672.25;4999695;28;20026;-74
2022/12/15 02:21:26;;;;;;;0.30;0.30;;;;;;;-7.58;100.00;100671.44;4996494;28;20037;-74
2022/12/15 02:24:17;;;;;;;0.40;0.40;;;;;;;-7.46;100.00;100686.16;4965344;28;20050;-75
2022/12/15 02:26:48;;;;;;;0.40;0.40;;;;;;;-7.54;100.00;100700.09;4984774;28;20030;-75
2022/12/15 02:29:39;;;;;;;0.40;0.40;;;;;;;-7.50;100.00;100698.34;4999381;28;21440;-75
2022/12/15 02:32:19;;;;;;;0.40;0.40;;;;;;;-7.44;100.00;100702.66;4982840;28;20451;-74
2022/12/15 02:35:01;;;;;;;0.30;0.30;;;;;;;-7.37;100.00;100701.75;4984878;28;20038;-74
2022/12/15 02:37:32;;;;;;;0.40;0.40;;;;;;;-7.40;100.00;100686.13;4983968;28;20021;-74
2022/12/15 02:39:57;;;;;;;0.40;0.40;;;;;;;-7.27;100.00;100692.97;4980335;28;20037;-74
2022/12/15 02:42:24;;;;;;;0.40;0.40;;;;;;;-7.10;100.00;100705.06;5000956;28;20112;-74
2022/12/15 02:44:54;;;;;;;0.38;0.38;;;;;;;-7.13;100.00;100687.66;4977754;28;20096;-74
2022/12/15 02:47:34;;;;;;;0.40;0.40;;;;;;;-6.96;100.00;100707.56;4969957;28;20044;-74
2022/12/15 02:50:12;;;;;;;0.40;0.40;;;;;;;-6.89;100.00;100711.88;4988769;28;20026;-74
2022/12/15 02:52:40;;;;;;;0.38;0.38;;;;;;;-6.83;100.00;100697.88;4995354;28;20036;-74
2022/12/15 02:55:27;;;;;;;0.40;0.40;;;;;;;-6.80;100.00;100701.34;4994788;28;20035;-74
2022/12/15 02:58:11;;;;;;;0.40;0.40;;;;;;;-6.79;100.00;100699.59;4988580;28;20048;-75
2022/12/15 03:00:41;;;;;;;0.30;0.30;;;;;;;-6.82;100.00;100692.63;4991349;28;20038;-74
2022/12/15 03:03:06;;;;;;;0.35;0.35;;;;;;;-6.84;100.00;100704.00;4983366;28;20791;-74
2022/12/15 03:05:31;;;;;;;0.40;0.40;;;;;;;-6.80;100.00;100703.09;4984556;28;20148;-74
2022/12/15 03:07:57;;;;;;;0.40;0.40;;;;;;;-7.03;100.00;100680.66;4985619;28;20022;-74
2022/12/15 03:10:24;;;;;;;0.40;0.40;;;;;;;-6.95;100.00;100697.09;4984320;28;20536;-74
2022/12/15 03:12:50;;;;;;;0.30;0.30;;;;;;;-7.05;100.00;100698.06;4964151;28;20137;-74
2022/12/15 03:15:17;;;;;;;0.40;0.40;;;;;;;-7.17;100.00;100675.53;4985555;28;20049;-74
2022/12/15 03:17:42;;;;;;;0.40;0.40;;;;;;;-7.24;100.00;100661.63;4969612;28;20022;-74
2022/12/15 03:20:08;;;;;;;0.40;0.40;;;;;;;-7.17;100.00;100679.88;4978086;28;20034;-74
2022/12/15 03:22:34;;;;;;;0.40;0.40;;;;;;;-7.27;100.00;100669.50;4982058;28;20066;-74
2022/12/15 03:24:59;;;;;;;0.40;0.40;;;;;;;-7.25;100.00;100693.81;4984651;28;20057;-74
2022/12/15 03:27:25;;;;;;;0.40;0.40;;;;;;;-7.25;100.00;100700.81;4978052;28;20026;-74
2022/12/15 03:29:50;;;;;;;0.40;0.40;;;;;;;-7.26;100.00;100696.47;4963286;28;20153;-74
2022/12/15 03:32:15;;;;;;;0.40;0.40;;;;;;;-7.12;100.00;100709.41;4976959;28;20035;-74
2022/12/15 03:34:41;;;;;;;0.40;0.40;;;;;;;-7.17;100.00;100714.69;4983286;28;20057;-74
2022/12/15 03:37:08;;;;;;;0.40;0.40;;;;;;;-7.24;100.00;100707.75;5002075;28;20069;-74
2022/12/15 03:39:33;;;;;;;0.40;0.40;;;;;;;-7.11;100.00;100730.28;4999951;28;20116;-74
2022/12/15 03:41:58;;;;;;;0.30;0.30;;;;;;;-7.06;100.00;100726.78;4977911;28;20056;-75
2022/12/15 03:44:24;;;;;;;0.40;0.40;;;;;;;-7.20;100.00;100706.88;4985886;28;20068;-74
2022/12/15 03:46:49;;;;;;;0.40;0.40;;;;;;;-7.15;100.00;100705.06;4980029;28;20033;-74
2022/12/15 03:49:15;;;;;;;0.40;0.40;;;;;;;-6.93;100.00;100729.28;4986196;28;20029;-74
2022/12/15 03:51:41;;;;;;;0.40;0.40;;;;;;;-6.86;100.00;100727.47;4982476;28;20125;-74
2022/12/15 03:54:06;;;;;;;0.40;0.40;;;;;;;-7.08;100.00;100711.13;4985591;28;20215;-74
2022/12/15 03:56:31;;;;;;;0.32;0.32;;;;;;;-6.90;100.00;100732.75;4998641;28;20033;-74
2022/12/15 03:58:57;;;;;;;0.30;0.30;;;;;;;-7.16;100.00;100682.50;4985929;28;20085;-74
2022/12/15 04:01:35;;;;;;;0.40;0.40;;;;;;;-7.04;100.00;100738.06;4984752;28;20308;-74
2022/12/15 04:04:01;;;;;;;0.30;0.30;;;;;;;-7.22;100.00;100726.88;5001355;28;20034;-74
2022/12/15 04:06:27;;;;;;;0.40;0.40;;;;;;;-7.16;100.00;100736.41;4983801;28;20049;-74
2022/12/15 04:08:52;;;;;;;0.40;0.40;;;;;;;-7.11;100.00;100732.03;4987230;28;20088;-74
2022/12/15 04:11:18;;;;;;;0.40;0.40;;;;;;;-7.11;100.00;100729.41;5002822;28;20407;-74
2022/12/15 04:13:43;;;;;;;0.40;0.40;;;;;;;-7.05;100.00;100729.38;4974949;28;20033;-74
2022/12/15 04:16:09;;;;;;;0.40;0.40;;;;;;;-6.91;100.00;100734.50;5002303;28;20113;-74
2022/12/15 04:18:35;;;;;;;0.40;0.40;;;;;;;-6.97;100.00;100713.66;5001895;28;20049;-74
2022/12/15 04:21:00;;;;;;;0.40;0.40;;;;;;;-6.82;100.00;100738.78;4992212;28;20025;-74
2022/12/15 04:23:25;;;;;;;0.40;0.40;;;;;;;-6.80;100.00;100735.28;4999789;28;20034;-75
2022/12/15 05:31:57;;;;;;;0.40;0.40;;;;;;;-8.01;100.00;100735.03;4995198;28;20506;-74
2022/12/15 05:34:25;;;;;;;0.40;0.40;;;;;;;-7.73;100.00;100758.41;4988617;28;20034;-74
2022/12/15 05:36:54;;;;;;;0.40;0.40;;;;;;;-7.81;100.00;100737.59;4975607;28;20037;-74
2022/12/15 05:39:20;;;;;;;0.40;0.40;;;;;;;-7.75;100.00;100740.19;4993535;28;20029;-74
2022/12/15 05:41:46;;;;;;;0.40;0.40;;;;;;;-7.69;100.00;100761.03;4991055;28;20030;-74
2022/12/15 05:44:12;;;;;;;0.50;0.50;;;;;;;-7.49;100.00;100785.25;4974739;28;20873;-74
2022/12/15 05:46:38;;;;;;;0.40;0.40;;;;;;;-7.54;100.00;100772.25;4986466;28;20576;-74
2022/12/15 05:49:07;;;;;;;0.40;0.40;;;;;;;-7.47;100.00;100770.47;4986812;28;20045;-74
2022/12/15 05:51:33;;;;;;;0.30;0.30;;;;;;;-7.61;100.00;100761.00;4987491;28;20033;-74
2022/12/15 05:53:58;;;;;;;0.40;0.40;;;;;;;-7.39;100.00;100777.38;4973009;28;20044;-74
2022/12/15 05:56:24;;;;;;;0.40;0.40;;;;;;;-7.49;100.00;100786.16;5001656;28;20041;-74
2022/12/15 05:58:50;;;;;;;0.45;0.45;;;;;;;-7.53;100.00;100777.44;4994541;28;20018;-74
2022/12/15 06:01:17;;;;;;;0.40;0.40;;;;;;;-7.58;100.00;100778.34;4981078;28;20030;-74
2022/12/15 06:03:42;;;;;;;0.40;0.40;;;;;;;-7.33;100.00;100791.28;4980613;28;20104;-74
2022/12/15 06:06:09;;;;;;;0.40;0.40;;;;;;;-7.59;100.00;100754.03;4981211;28;20407;-74
2022/12/15 06:08:37;;;;;;;0.47;0.47;;;;;;;-7.45;100.00;100772.22;4975795;28;20516;-74
2022/12/15 06:11:03;;;;;;;0.40;0.40;;;;;;;-7.31;100.00;100789.53;4976496;28;20507;-74
2022/12/15 06:13:35;;;;;;;0.40;0.40;;;;;;;-7.32;100.00;100769.53;4985024;28;20037;-74
2022/12/15 06:16:05;;;;;;;0.40;0.40;;;;;;;-7.38;100.00;100773.91;4980762;28;20044;-74
2022/12/15 06:18:33;;;;;;;0.40;0.40;;;;;;;-7.51;100.00;100756.59;4993414;28;20037;-74
2022/12/15 06:21:11;;;;;;;0.47;0.47;;;;;;;-7.39;100.00;100766.97;5098647;27;20378;-73
2022/12/15 06:23:36;;;;;;;0.50;0.50;;;;;;;-7.36;100.00;100794.78;5100108;28;20051;-73
2022/12/15 06:26:14;;;;;;;0.43;0.43;;;;;;;-7.28;100.00;100792.13;5090855;28;20032;-73
2022/12/15 06:28:40;;;;;;;0.38;0.38;;;;;;;-7.34;100.00;100806.09;5101767;28;20045;-73
2022/12/15 06:31:08;;;;;;;0.40;0.40;;;;;;;-7.44;100.00;100800.03;5090506;28;20036;-73
2022/12/15 06:33:35;;;;;;;0.40;0.40;;;;;;;-7.51;100.00;100784.41;5097413;28;20059;-73
2022/12/15 06:36:02;;;;;;;0.40;0.40;;;;;;;-7.29;100.00;100793.00;5088327;28;20035;-73
2022/12/15 06:38:28;;;;;;;0.50;0.50;;;;;;;-7.51;100.00;100787.00;5094526;28;20032;-73
2022/12/15 06:40:58;;;;;;;0.40;0.40;;;;;;;-7.35;100.00;100804.34;5098079;28;20077;-73
2022/12/15 06:43:24;;;;;;;0.40;0.40;;;;;;;-7.31;100.00;100808.69;5103403;28;20027;-73
2022/12/15 06:45:50;;;;;;;0.40;0.40;;;;;;;-7.29;100.00;100801.72;5084636;28;20123;-73
2022/12/15 06:48:15;;;;;;;0.40;0.40;;;;;;;-7.42;100.00;100797.41;5092292;28;20147;-73
2022/12/15 06:50:41;;;;;;;0.43;0.43;;;;;;;-7.50;100.00;100787.03;5139048;27;20437;-73
2022/12/15 06:53:06;;;;;;;0.40;0.40;;;;;;;-7.39;100.00;100808.69;5100477;28;20403;-73
2022/12/15 06:55:32;;;;;;;0.40;0.40;;;;;;;-7.44;100.00;100809.59;5090684;28;20039;-73
2022/12/15 06:57:57;;;;;;;0.40;0.40;;;;;;;-7.84;100.00;100748.91;5092549;28;20040;-73
2022/12/15 07:00:23;;;;;;;0.40;0.40;;;;;;;-7.47;100.00;100807.88;5094576;28;20028;-74
2022/12/15 07:02:48;;;;;;;0.40;0.40;;;;;;;-7.54;100.00;100807.00;5094930;28;20059;-74
2022/12/15 07:05:13;;;;;;;0.40;0.40;;;;;;;-7.77;100.00;100806.22;5098298;28;20126;-74
2022/12/15 07:07:39;;;;;;;0.40;0.40;;;;;;;-7.74;100.00;100817.53;5090229;28;20037;-74
2022/12/15 07:10:05;;;;;;;0.38;0.38;;;;;;;-8.07;100.00;100788.06;5099222;28;20036;-74
2022/12/15 07:12:30;;;;;;;0.40;0.40;;;;;;;-7.93;100.00;100811.47;5100224;28;20147;-74
2022/12/15 07:14:56;;;;;;;0.40;0.40;;;;;;;-7.97;100.00;100796.72;5095431;28;20119;-75
2022/12/15 07:17:22;;;;;;;0.40;0.40;;;;;;;-7.91;100.00;100798.44;5097633;28;20474;-74
2022/12/15 07:19:48;;;;;;;0.50;0.50;;;;;;;-8.01;100.00;100813.22;5092151;28;20033;-74
2022/12/15 07:22:13;;;;;;;0.40;0.40;;;;;;;-7.90;100.00;100814.09;5129604;27;20042;-74
2022/12/15 07:24:39;;;;;;;0.30;0.30;;;;;;;-7.79;100.00;100826.22;5083514;28;20119;-74
2022/12/15 07:27:04;;;;;;;0.40;0.40;;;;;;;-7.87;100.00;100819.31;5095902;28;20493;-74
2022/12/15 07:29:29;;;;;;;0.40;0.40;;;;;;;-7.89;100.00;100828.84;5131874;27;20035;-74
2022/12/15 07:31:55;;;;;;;0.30;0.30;;;;;;;-7.95;100.00;100828.84;5075916;28;20051;-74
2022/12/15 07:34:20;;;;;;;0.40;0.40;;;;;;;-8.17;100.00;100808.06;5086729;28;20040;-74
2022/12/15 07:36:46;;;;;;;0.40;0.40;;;;;;;-7.84;100.00;100847.09;5078025;28;20035;-75
2022/12/15 07:39:11;;;;;;;0.40;0.40;;;;;;;-8.06;100.00;100794.13;5080663;28;20118;-74
2022/12/15 07:41:37;;;;;;;0.40;0.40;;;;;;;-7.78;100.00;100841.88;5071154;28;20131;-74
2022/12/15 07:44:02;;;;;;;0.40;0.40;;;;;;;-7.94;100.00;100817.56;5086730;28;20058;-74
2022/12/15 07:46:28;;;;;;;0.40;0.40;;;;;;;-7.87;100.00;100816.69;5111483;27;20569;-74
2022/12/15 07:48:54;;;;;;;0.40;0.40;;;;;;;-7.78;100.00;100846.19;5084752;28;20484;-74
2022/12/15 07:51:19;;;;;;;0.40;0.40;;;;;;;-7.92;100.00;100796.69;5080698;28;20035;-74
2022/12/15 07:53:46;;;;;;;0.40;0.40;;;;;;;-7.76;100.00;100832.31;5081900;28;20058;-74
2022/12/15 07:56:11;;;;;;;0.43;0.43;;;;;;;-8.03;100.00;100825.38;5077774;28;20033;-74
2022/12/15 07:58:37;;;;;;;0.40;0.40;;;;;;;-7.92;100.00;100834.06;5085427;28;20043;-74
2022/12/15 08:01:05;;;;;;;0.40;0.40;;;;;;;-7.72;100.00;100867.94;5067589;28;20035;-74
2022/12/15 08:03:30;;;;;;;0.50;0.50;;;;;;;-7.79;100.00;100839.25;5082491;28;20123;-74
2022/12/15 08:05:56;;;;;;;0.40;0.40;;;;;;;-7.56;100.00;100847.03;5072522;28;20118;-74
2022/12/15 08:08:22;;;;;;;0.50;0.50;;;;;;;-7.39;100.00;100849.59;5083368;28;20119;-74
2022/12/15 08:10:48;;;;;;;0.40;0.40;;;;;;;-7.59;100.00;100824.44;5063762;28;20067;-74
2022/12/15 08:13:14;;;;;;;0.55;0.55;;;;;;;-7.60;100.00;100827.03;5070842;28;20107;-74
2022/12/15 08:15:40;;;;;;;0.40;0.40;;;;;;;-7.31;100.00;100865.19;5085072;28;20057;-74
2022/12/15 08:18:06;;;;;;;0.47;0.47;;;;;;;-7.35;100.00;100835.66;5081588;28;20032;-74
2022/12/15 08:20:32;;;;;;;0.40;0.40;;;;;;;-7.03;100.00;100871.19;5109146;27;20034;-74
2022/12/15 08:22:57;;;;;;;0.40;0.40;;;;;;;-6.96;100.00;100846.78;5067442;28;20066;-74
2022/12/15 08:25:23;;;;;;;0.50;0.50;;;;;;;-6.73;100.00;100852.75;5108805;27;20066;-74
2022/12/15 08:27:51;;;;;;;0.40;0.40;;;;;;;-6.44;100.00;100873.44;5068104;28;20114;-74
2022/12/15 08:30:17;;;;;;;0.40;0.40;;;;;;;-6.38;100.00;100880.38;5087421;28;20036;-74
2022/12/15 08:32:44;;;;;;;0.40;0.40;;;;;;;-6.47;100.00;100881.28;5079584;28;20028;-74
2022/12/15 08:35:09;;;;;;;0.40;0.40;;;;;;;-6.30;100.00;100881.19;5081041;28;20477;-74
2022/12/15 08:37:35;;;;;;;0.40;0.40;;;;;;;-6.08;100.00;100874.06;5087305;28;20042;-75
2022/12/15 08:40:00;;;;;;;0.40;0.40;;;;;;;-6.05;100.00;100854.84;5089895;28;20466;-74
2022/12/15 08:42:25;;;;;;;0.40;0.40;;;;;;;-5.85;100.00;100877.31;5089527;28;20046;-74
2022/12/15 08:44:51;;;;;;;0.30;0.30;;;;;;;-5.80;100.00;100885.97;5080213;28;20782;-73
2022/12/15 08:47:16;;;;;;;0.40;0.40;;;;;;;-5.71;100.00;100872.81;5085212;28;20214;-73
2022/12/15 08:49:43;;;;;;;0.40;0.40;;;;;;;-5.86;100.00;100863.34;5087395;28;20059;-73
2022/12/15 08:52:08;;;;;;;0.40;0.40;;;;;;;-5.56;100.00;100869.16;5111702;27;20032;-73
2022/12/15 08:54:33;;;;;;;0.30;0.30;;;;;;;-5.53;100.00;100879.59;5087761;28;20036;-73
2022/12/15 08:56:59;;;;;;;0.40;0.40;;;;;;;-5.55;100.00;100880.47;5076921;28;20040;-73
2022/12/15 08:59:24;;;;;;;0.40;0.40;;;;;;;-5.41;100.00;100878.59;5084549;28;20032;-73
2022/12/15 09:01:50;;;;;;;0.40;0.40;;;;;;;-5.20;100.00;100885.34;5085427;28;20035;-73
2022/12/15 09:04:16;;;;;;;0.40;0.40;;;;;;;-5.12;100.00;100891.34;5100048;28;20382;-73
2022/12/15 09:06:42;;;;;;;0.30;0.30;;;;;;;-4.86;100.00;100887.53;5080461;28;20033;-73
2022/12/15 09:09:10;;;;;;;0.40;0.40;;;;;;;-4.84;100.00;100883.13;5083177;28;20108;-73
2022/12/15 09:11:36;;;;;;;0.30;0.30;;;;;;;-4.83;100.00;100878.78;5077033;28;20133;-73
2022/12/15 09:14:02;;;;;;;0.40;0.40;;;;;;;-4.57;100.00;100890.66;5085056;28;20123;-73
2022/12/15 09:16:27;;;;;;;0.40;0.40;;;;;;;-4.65;100.00;100885.53;5082179;28;20036;-73
2022/12/15 09:18:55;;;;;;;0.40;0.40;;;;;;;-4.61;100.00;100886.34;5088644;28;20489;-73
2022/12/15 09:21:23;;;;;;;0.40;0.40;;;;;;;-4.20;100.00;100897.94;5085003;28;20028;-72
2022/12/15 09:23:50;;;;;;;0.30;0.30;;;;;;;-4.09;100.00;100898.66;5086057;28;20031;-73
2022/12/15 09:26:16;;;;;;;0.40;0.40;;;;;;;-4.03;100.00;100902.09;5084967;28;20032;-73
2022/12/15 09:28:42;;;;;;;0.40;0.40;;;;;;;-4.01;100.00;100903.78;5087616;28;20032;-73
2022/12/15 09:31:13;;;;;;;0.38;0.38;;;;;;;-3.51;100.00;100897.66;5080927;28;20070;-72
2022/12/15 09:33:39;;;;;;;0.40;0.40;;;;;;;-2.96;100.00;100906.25;5080334;28;20123;-73
2022/12/15 09:36:05;;;;;;;0.35;0.35;;;;;;;-2.71;100.00;100908.38;5089176;28;20065;-73
2022/12/15 09:38:33;;;;;;;0.47;0.47;;;;;;;-2.47;100.00;100925.34;5082786;28;20036;-73
2022/12/15 09:41:06;;;;;;;0.40;0.40;;;;;;;-2.27;100.00;100924.91;5084103;28;20051;-73
2022/12/15 09:43:32;;;;;;;0.35;0.35;;;;;;;-1.97;98.47;100934.72;5087603;28;20066;-72
2022/12/15 09:46:06;;;;;;;0.30;0.30;;;;;;;-1.88;97.64;100937.16;5087443;28;20064;-72
2022/12/15 09:48:38;;;;;;;0.40;0.40;;;;;;;-1.67;95.67;100922.59;5086297;28;20071;-73
2022/12/15 09:51:07;;;;;;;0.30;0.30;;;;;;;-1.42;92.85;100943.03;5079263;28;20035;-73
2022/12/15 09:53:33;;;;;;;0.40;0.40;;;;;;;-1.23;93.24;100938.13;5078322;28;20033;-72
2022/12/15 09:56:07;;;;;;;0.30;0.30;;;;;;;-1.17;91.35;100917.75;5077495;28;20057;-72
2022/12/15 09:59:19;;;;;;;0.30;0.30;;;;;;;-0.71;91.24;100937.56;5065313;28;20033;-72
2022/12/15 10:01:58;;;;;;;0.30;0.30;;;;;;;0.10;89.61;100929.81;5073512;28;20474;-72
2022/12/15 10:04:30;;;;;;;0.30;0.30;;;;;;;0.57;82.83;100924.72;5075374;28;20445;-72
2022/12/15 10:07:30;;;;;;;0.30;0.30;;;;;;;0.82;83.65;100926.50;5066291;28;20113;-73
2022/12/15 10:09:56;;;;;;;0.30;0.30;;;;;;;0.44;83.91;100928.66;5047956;28;20050;-73
2022/12/15 10:12:28;;;;;;;0.28;0.28;;;;;;;0.20;84.81;100896.91;5078601;28;20040;-73
2022/12/15 10:15:06;;;;;;;0.30;0.30;;;;;;;0.74;83.49;100926.75;5078340;28;20538;-73
2022/12/15 10:17:52;;;;;;;0.30;0.30;;;;;;;0.84;81.33;100924.66;5083022;28;20028;-72
2022/12/15 10:20:29;;;;;;;0.30;0.30;;;;;;;1.33;80.29;100929.06;5059811;28;20348;-73
2022/12/15 10:22:56;;;;;;;0.30;0.30;;;;;;;0.83;83.00;100944.06;5082022;28;20384;-73
2022/12/15 10:25:29;;;;;;;0.30;0.30;;;;;;;1.08;81.74;100929.97;5079694;28;20403;-73
2022/12/15 10:28:14;;;;;;;0.30;0.30;;;;;;;1.50;80.52;100923.13;5072092;28;20028;-73
2022/12/15 10:30:52;;;;;;;0.30;0.30;;;;;;;2.06;76.27;100919.13;5077621;28;20636;-73
2022/12/15 10:33:23;;;;;;;0.30;0.30;;;;;;;2.44;75.72;100926.41;5078827;28;20025;-73
2022/12/15 10:35:51;;;;;;;0.30;0.30;;;;;;;2.54;73.98;100926.88;5075930;28;20119;-73
2022/12/15 10:38:28;;;;;;;0.28;0.28;;;;;;;2.48;74.04;100930.66;5082280;28;20028;-73
2022/12/15 10:40:56;;;;;;;0.20;0.20;;;;;;;2.03;76.78;100903.34;5076102;28;20024;-73
2022/12/15 10:43:25;;;;;;;0.20;0.20;;;;;;;2.66;74.55;100936.06;5102713;28;20035;-73
2022/12/15 10:46:07;;;;;;;0.20;0.20;;;;;;;3.10;71.91;100930.63;5080443;28;20030;-73
2022/12/15 10:48:35;;;;;;;0.20;0.20;;;;;;;3.20;72.09;100933.72;5081027;28;20028;-73
2022/12/15 10:51:14;;;;;;;0.30;0.30;;;;;;;2.80;73.43;100946.97;5085877;28;20027;-73
2022/12/15 10:53:44;;;;;;;0.30;0.30;;;;;;;2.95;72.12;100949.84;5078562;28;20036;-73
2022/12/15 10:56:17;;;;;;;0.30;0.30;;;;;;;2.59;75.67;100946.09;5086166;28;20028;-73
2022/12/15 10:58:48;;;;;;;0.30;0.30;;;;;;;2.87;72.25;100936.94;5078247;28;20110;-73
2022/12/15 11:01:16;;;;;;;0.30;0.30;;;;;;;3.39;69.96;100914.28;5076071;28;20285;-73
2022/12/15 11:03:42;;;;;;;0.25;0.25;;;;;;;2.99;70.78;100914.31;5081199;28;20030;-73
2022/12/15 11:06:18;;;;;;;0.30;0.30;;;;;;;2.87;71.14;100897.16;5077883;28;20016;-73
2022/12/15 11:08:46;;;;;;;0.20;0.20;;;;;;;3.13;73.05;100921.66;5085063;28;20106;-72
2022/12/15 11:14:23;;;;;;;0.20;0.20;;;;;;;3.53;69.43;100908.31;5084092;28;20039;-72
2022/12/15 11:16:57;;;;;;;0.30;0.30;;;;;;;3.90;67.20;100907.41;5068143;28;20377;-72
2022/12/15 11:20:02;;;;;;;0.30;0.30;;;;;;;3.60;67.81;100921.22;5082005;28;20033;-73
2022/12/15 11:23:07;;;;;;;0.30;0.30;;;;;;;3.01;71.79;100925.72;5029449;28;20048;-73
2022/12/15 11:25:55;;;;;;;0.20;0.20;;;;;;;3.53;69.86;100916.28;5075758;28;20051;-73
2022/12/15 11:28:26;;;;;;;0.30;0.30;;;;;;;3.54;69.91;100923.31;5085949;28;20323;-73
2022/12/15 11:31:23;;;;;;;0.30;0.30;;;;;;;3.72;68.75;100935.72;5080294;28;20102;-73
2022/12/15 11:33:51;;;;;;;0.30;0.30;;;;;;;3.92;66.01;100906.50;5059565;28;20127;-73
2022/12/15 11:36:55;;;;;;;0.30;0.30;;;;;;;3.26;70.17;100928.13;5080634;28;20035;-72
2022/12/15 11:39:32;;;;;;;0.30;0.30;;;;;;;3.28;69.00;100923.63;5067902;28;20063;-72
2022/12/15 11:42:06;;;;;;;0.30;0.30;;;;;;;3.56;68.06;100929.44;5077155;28;20043;-72
2022/12/15 11:44:50;;;;;;;0.28;0.28;;;;;;;4.26;66.34;100926.94;5086468;28;20074;-73
2022/12/15 11:47:41;;;;;;;0.20;0.20;;;;;;;3.29;67.09;100904.13;5081625;28;20496;-73
2022/12/15 11:50:35;;;;;;;0.30;0.30;;;;;;;3.62;68.64;100907.91;5092756;28;20035;-72
2022/12/15 11:53:20;;;;;;;0.30;0.30;;;;;;;3.69;67.84;100927.06;5075512;28;20044;-72
2022/12/15 11:56:13;;;;;;;0.30;0.30;;;;;;;4.08;66.25;100925.19;5055051;28;20107;-73
2022/12/15 11:59:02;;;;;;;0.30;0.30;;;;;;;3.86;65.84;100918.28;5099872;27;20512;-72
2022/12/15 12:01:38;;;;;;;0.30;0.30;;;;;;;3.92;66.37;100901.16;5068826;28;20033;-72
2022/12/15 12:04:16;;;;;;;0.30;0.30;;;;;;;4.12;66.75;100877.13;5086757;28;20815;-72
2022/12/15 12:06:57;;;;;;;0.20;0.20;;;;;;;4.82;63.49;100908.16;5072025;28;20042;-73
2022/12/15 12:09:31;;;;;;;0.30;0.30;;;;;;;4.54;63.33;100884.81;5087949;28;20031;-73
2022/12/15 12:12:17;;;;;;;0.22;0.22;;;;;;;4.88;61.00;100917.63;5063012;28;20033;-72
2022/12/15 12:14:50;;;;;;;0.30;0.30;;;;;;;4.92;61.19;100906.72;5076747;28;20454;-72
2022/12/15 12:17:38;;;;;;;0.30;0.30;;;;;;;3.81;65.00;100912.31;5117309;27;20320;-73
2022/12/15 12:20:13;;;;;;;0.30;0.30;;;;;;;4.89;63.00;100898.06;5073223;28;20115;-73
2022/12/15 12:22:41;;;;;;;0.28;0.28;;;;;;;4.75;64.26;100883.69;5071142;28;20032;-72
2022/12/15 12:25:14;;;;;;;0.30;0.30;;;;;;;5.22;62.77;100895.38;5113319;27;20153;-73
2022/12/15 12:27:48;;;;;;;0.25;0.25;;;;;;;5.28;61.38;100886.19;5106221;27;20036;-72
2022/12/15 12:30:17;;;;;;;0.30;0.30;;;;;;;5.30;59.02;100886.97;5083255;28;20127;-73
2022/12/15 12:32:53;;;;;;;0.20;0.20;;;;;;;5.53;58.87;100860.88;5075685;28;20020;-73
2022/12/15 12:35:31;;;;;;;0.30;0.30;;;;;;;5.60;60.23;100890.66;5071214;28;20343;-72
2022/12/15 12:38:05;;;;;;;0.20;0.20;;;;;;;5.69;58.57;100892.81;5073200;28;20024;-73
2022/12/15 12:40:39;;;;;;;0.20;0.20;;;;;;;5.96;59.12;100886.88;5070290;28;20454;-73
2022/12/15 12:43:06;;;;;;;0.20;0.20;;;;;;;6.74;55.74;100877.88;5069162;28;20478;-73
2022/12/15 12:45:46;;;;;;;0.20;0.20;;;;;;;6.90;55.32;100877.75;5077574;28;20053;-72
2022/12/15 12:48:23;;;;;;;0.20;0.20;;;;;;;7.10;54.36;100886.38;5072182;28;20586;-73
2022/12/15 12:50:49;;;;;;;0.20;0.20;;;;;;;7.17;54.32;100872.53;5078470;28;20073;-72
2022/12/15 12:53:32;;;;;;;0.20;0.20;;;;;;;6.27;56.88;100871.78;5059156;28;20024;-72
2022/12/15 12:55:57;;;;;;;0.20;0.20;;;;;;;6.30;56.73;100859.13;5076369;28;20462;-73
2022/12/15 12:58:40;;;;;;;0.15;0.15;;;;;;;6.12;56.10;100870.88;5076186;28;20093;-73
2022/12/15 13:01:19;;;;;;;0.28;0.28;;;;;;;6.03;56.72;100879.41;5081012;28;20115;-73
2022/12/15 13:03:45;;;;;;;0.20;0.20;;;;;;;6.07;58.02;100857.81;5106834;27;20042;-73
2022/12/15 13:06:35;;;;;;;0.20;0.20;;;;;;;5.97;58.55;100854.78;5077194;28;20084;-73
2022/12/15 13:09:15;;;;;;;0.20;0.20;;;;;;;5.22;60.94;100860.78;5075731;28;20090;-73
2022/12/15 13:11:50;;;;;;;0.30;0.30;;;;;;;5.50;61.21;100853.91;5076298;28;20470;-72
2022/12/15 13:14:18;;;;;;;0.20;0.20;;;;;;;5.49;61.00;100852.19;5074360;28;20093;-72
2022/12/15 13:16:44;;;;;;;0.22;0.22;;;;;;;6.58;57.95;100846.78;5076984;28;20028;-73
2022/12/15 13:19:10;;;;;;;0.20;0.20;;;;;;;6.73;57.46;100844.13;5077720;28;20032;-72
2022/12/15 13:21:45;;;;;;;0.20;0.20;;;;;;;5.82;59.09;100853.88;5080989;28;20039;-72
2022/12/15 13:24:28;;;;;;;0.10;0.10;;;;;;;5.70;60.71;100847.44;5079672;28;20028;-73
2022/12/15 13:27:08;;;;;;;0.10;0.10;;;;;;;4.35;65.40;100845.88;5078067;28;20390;-73
2022/12/15 13:29:35;;;;;;;0.13;0.13;;;;;;;4.04;69.34;100844.78;5078965;28;20024;-72
2022/12/15 13:32:01;;;;;;;0.10;0.10;;;;;;;3.54;70.45;100841.03;5071817;28;20028;-72
2022/12/15 13:34:28;;;;;;;0.13;0.13;;;;;;;3.39;73.23;100851.47;5071102;28;20062;-73
2022/12/15 13:36:56;;;;;;;0.20;0.20;;;;;;;3.05;76.79;100846.84;5075828;28;20479;-72
2022/12/15 13:39:21;;;;;;;0.17;0.17;;;;;;;2.83;80.12;100837.22;5082673;28;20481;-72
2022/12/15 13:41:53;;;;;;;0.10;0.10;;;;;;;2.76;79.99;100841.97;5076090;28;20745;-73
2022/12/15 13:44:33;;;;;;;0.10;0.10;;;;;;;2.00;85.39;100836.41;5085590;28;20035;-73
2022/12/15 13:47:20;;;;;;;0.20;0.20;;;;;;;1.98;86.23;100828.56;5084558;28;20513;-72
2022/12/15 13:49:59;;;;;;;0.20;0.20;;;;;;;1.35;90.25;100809.00;5081500;28;20124;-72
2022/12/15 13:52:34;;;;;;;0.20;0.20;;;;;;;1.25;93.25;100839.41;5081786;28;20490;-72
2022/12/15 13:55:06;;;;;;;0.20;0.20;;;;;;;1.32;92.53;100834.72;5067915;28;20375;-72
2022/12/15 13:57:39;;;;;;;0.20;0.20;;;;;;;1.11;95.03;100833.78;5098120;28;20039;-72
2022/12/15 14:00:20;;;;;;;0.20;0.20;;;;;;;1.02;97.43;100824.41;5070659;28;20130;-72